createdAt,value
2022-10-20T00:00:09.969Z,0.43
2022-10-20T00:02:38.047Z,0.50
2022-10-20T00:05:09.352Z,0.60
2022-10-20T00:07:38.542Z,0.50
2022-10-20T00:10:07.165Z,0.40
2022-10-20T00:12:38.221Z,0.40
2022-10-20T00:15:08.909Z,0.40
2022-10-20T00:20:07.531Z,0.50
2022-10-20T00:22:37.525Z,0.40
2022-10-20T00:25:09.940Z,0.60
2022-10-20T00:27:37.871Z,0.50
2022-10-20T00:30:06.126Z,0.40
2022-10-20T00:32:36.592Z,0.40
2022-10-20T00:35:05.234Z,0.50
2022-10-20T00:37:33.117Z,0.50
2022-10-20T00:40:03.244Z,0.57
2022-10-20T00:42:34.679Z,0.47
2022-10-20T00:45:13.650Z,0.60
2022-10-20T00:50:24.321Z,0.50
2022-10-20T00:52:55.514Z,0.53
2022-10-20T00:55:27.987Z,0.60
2022-10-20T00:58:01.509Z,0.50
2022-10-20T01:00:31.956Z,0.70
2022-10-20T01:05:31.779Z,0.50
2022-10-20T01:08:02.318Z,0.40
2022-10-20T01:13:15.229Z,0.50
2022-10-20T01:15:52.770Z,0.50
2022-10-20T01:18:29.179Z,0.60
2022-10-20T01:21:25.005Z,0.50
2022-10-20T01:24:19.791Z,0.67
2022-10-20T01:27:19.213Z,0.43
2022-10-20T01:29:55.614Z,0.40
2022-10-20T01:32:36.214Z,0.40
2022-10-20T01:35:11.182Z,0.60
2022-10-20T01:37:51.288Z,0.47
2022-10-20T01:40:27.503Z,0.65
2022-10-20T01:43:05.034Z,0.60
2022-10-20T01:45:36.105Z,0.63
2022-10-20T01:48:10.060Z,0.73
2022-10-20T01:50:40.091Z,1.30
2022-10-20T01:53:10.392Z,0.80
2022-10-20T01:55:39.454Z,0.55
2022-10-20T01:58:23.238Z,0.50
2022-10-20T02:00:54.076Z,0.73
2022-10-20T02:03:33.620Z,0.87
2022-10-20T02:06:19.952Z,0.90
2022-10-20T02:08:53.586Z,0.70
2022-10-20T02:11:27.477Z,0.57
2022-10-20T02:13:59.562Z,0.60
2022-10-20T02:16:30.799Z,0.47
2022-10-20T02:19:01.978Z,0.53
2022-10-20T02:21:30.193Z,0.73
2022-10-20T02:24:05.673Z,0.80
2022-10-20T02:26:38.338Z,0.67
2022-10-20T02:29:16.836Z,0.93
2022-10-20T02:31:47.893Z,0.80
2022-10-20T02:34:16.416Z,0.53
2022-10-20T02:36:47.287Z,0.60
2022-10-20T02:39:17.247Z,0.43
2022-10-20T02:41:45.017Z,0.50
2022-10-20T02:44:16.090Z,0.60
2022-10-20T02:46:45.960Z,0.60
2022-10-20T02:49:14.000Z,0.60
2022-10-20T02:51:42.091Z,0.50
2022-10-20T02:54:09.967Z,0.90
2022-10-20T02:56:39.883Z,0.80
2022-10-20T02:59:09.591Z,0.80
2022-10-20T03:01:38.785Z,0.50
2022-10-20T03:04:08.715Z,0.90
2022-10-20T03:06:36.812Z,0.85
2022-10-20T03:09:05.772Z,0.77
2022-10-20T03:11:35.716Z,0.60
2022-10-20T03:14:05.458Z,1.15
2022-10-20T03:16:33.333Z,0.77
2022-10-20T03:19:06.286Z,0.90
2022-10-20T03:21:37.322Z,0.70
2022-10-20T03:24:07.730Z,0.75
2022-10-20T03:26:35.556Z,0.80
2022-10-20T03:29:03.487Z,0.60
2022-10-20T03:31:33.590Z,0.40
2022-10-20T03:34:02.842Z,0.80
2022-10-20T03:36:32.592Z,0.60
2022-10-20T03:39:00.479Z,0.60
2022-10-20T03:41:28.502Z,0.97
2022-10-20T03:43:58.233Z,0.93
2022-10-20T03:46:28.185Z,0.60
2022-10-20T03:48:56.000Z,0.70
2022-10-20T03:51:27.180Z,1.20
2022-10-20T03:53:57.097Z,2.17
2022-10-20T03:56:24.841Z,2.25
2022-10-20T03:58:54.616Z,2.20
2022-10-20T04:01:28.281Z,2.15
2022-10-20T04:03:56.232Z,1.93
2022-10-20T04:06:27.509Z,1.67
2022-10-20T04:08:55.377Z,1.50
2022-10-20T04:11:25.964Z,1.23
2022-10-20T04:16:24.157Z,1.38
2022-10-20T04:18:55.664Z,1.30
2022-10-20T04:21:28.847Z,1.00
2022-10-20T04:23:56.725Z,0.90
2022-10-20T04:26:24.636Z,0.87
2022-10-20T04:28:56.739Z,1.10
2022-10-20T04:31:26.554Z,1.60
2022-10-20T04:33:54.319Z,0.90
2022-10-20T04:36:24.345Z,1.23
2022-10-20T04:38:53.676Z,1.30
2022-10-20T04:41:21.468Z,0.70
2022-10-20T04:43:52.766Z,0.80
2022-10-20T04:46:21.112Z,0.70
2022-10-20T04:48:48.962Z,1.03
2022-10-20T04:51:19.207Z,0.80
2022-10-20T04:53:49.412Z,0.93
2022-10-20T04:56:21.320Z,0.60
2022-10-20T04:58:49.939Z,1.00
2022-10-20T05:01:18.913Z,0.80
2022-10-20T05:03:49.087Z,0.90
2022-10-20T05:06:18.735Z,0.98
2022-10-20T05:08:50.670Z,0.85
2022-10-20T05:11:23.444Z,0.80
2022-10-20T05:13:53.319Z,0.90
2022-10-20T05:16:21.654Z,0.65
2022-10-20T05:18:52.323Z,1.17
2022-10-20T05:21:25.186Z,1.20
2022-10-20T05:23:57.113Z,1.27
2022-10-20T05:26:28.299Z,2.17
2022-10-20T05:28:56.521Z,2.27
2022-10-20T05:31:24.833Z,2.47
2022-10-20T05:33:54.700Z,2.53
2022-10-20T05:36:26.630Z,3.50
2022-10-20T05:38:58.141Z,3.67
2022-10-20T05:41:32.134Z,3.40
2022-10-20T05:44:08.842Z,3.47
2022-10-20T05:46:41.593Z,3.10
2022-10-20T05:49:17.504Z,3.07
2022-10-20T05:51:46.947Z,3.27
2022-10-20T05:54:16.994Z,3.23
2022-10-20T05:56:48.499Z,3.17
2022-10-20T05:59:16.373Z,2.70
2022-10-20T06:01:53.468Z,2.83
2022-10-20T06:04:24.137Z,2.80
2022-10-20T06:06:56.292Z,2.13
2022-10-20T06:09:26.286Z,2.27
2022-10-20T06:11:55.487Z,2.45
2022-10-20T06:14:25.355Z,1.90
2022-10-20T06:16:56.282Z,1.80
2022-10-20T06:19:24.819Z,2.00
2022-10-20T06:21:53.456Z,1.90
2022-10-20T06:24:24.523Z,2.10
2022-10-20T06:26:52.567Z,2.10
2022-10-20T06:29:21.907Z,1.80
2022-10-20T06:31:52.993Z,2.00
2022-10-20T06:34:22.626Z,1.50
2022-10-20T06:36:51.004Z,1.85
2022-10-20T06:39:20.924Z,1.67
2022-10-20T06:41:50.576Z,1.90
2022-10-20T06:44:18.645Z,1.25
2022-10-20T06:46:54.335Z,1.30
2022-10-20T06:49:22.436Z,1.13
2022-10-20T06:51:52.535Z,1.20
2022-10-20T06:54:22.322Z,1.30
2022-10-20T06:56:50.112Z,1.08
2022-10-20T06:59:18.231Z,1.13
2022-10-20T07:01:47.522Z,1.10
2022-10-20T07:04:16.735Z,1.40
2022-10-20T07:06:47.760Z,1.10
2022-10-20T07:09:17.561Z,0.90
2022-10-20T07:11:45.622Z,1.00
2022-10-20T07:14:14.719Z,0.90
2022-10-20T07:16:44.779Z,0.93
2022-10-20T07:19:16.296Z,0.80
2022-10-20T07:21:45.460Z,1.03
2022-10-20T07:24:16.001Z,0.90
2022-10-20T07:26:46.058Z,0.90
2022-10-20T07:29:14.966Z,0.40
2022-10-20T07:31:46.312Z,0.50
2022-10-20T07:34:25.762Z,0.70
2022-10-20T07:36:57.823Z,2.10
2022-10-20T07:39:28.487Z,1.27
2022-10-20T07:41:56.308Z,2.17
2022-10-20T07:44:24.278Z,0.80
2022-10-20T07:46:52.162Z,3.70
2022-10-20T07:52:09.339Z,0.50
2022-10-20T07:54:37.251Z,0.50
2022-10-20T07:57:07.331Z,0.60
2022-10-20T07:59:37.325Z,0.60
2022-10-20T08:02:05.387Z,0.40
2022-10-20T08:04:36.507Z,0.97
2022-10-20T08:07:06.254Z,0.47
2022-10-20T08:09:34.111Z,2.45
2022-10-20T08:12:06.847Z,1.30
2022-10-20T08:14:36.290Z,0.77
2022-10-20T08:17:05.189Z,0.60
2022-10-20T08:19:49.522Z,0.50
2022-10-20T08:22:19.226Z,0.43
2022-10-20T08:24:51.419Z,0.60
2022-10-20T08:27:19.428Z,0.50
2022-10-20T08:29:55.044Z,0.70
2022-10-20T08:32:32.304Z,0.43
2022-10-20T08:35:01.549Z,0.50
2022-10-20T08:37:35.499Z,0.50
2022-10-20T08:40:03.504Z,0.50
2022-10-20T08:42:39.648Z,0.40
2022-10-20T08:45:08.557Z,0.50
2022-10-20T08:47:39.707Z,0.50
2022-10-20T08:50:14.788Z,0.60
2022-10-20T08:52:46.002Z,0.40
2022-10-20T08:55:23.588Z,0.40
2022-10-20T08:57:53.622Z,0.50
2022-10-20T09:00:23.957Z,0.45
2022-10-20T09:02:54.216Z,0.40
2022-10-20T09:05:30.127Z,0.40
2022-10-20T09:08:00.367Z,0.40
2022-10-20T09:10:34.422Z,0.50
2022-10-20T09:13:04.989Z,0.40
2022-10-20T09:18:08.577Z,0.45
2022-10-20T09:20:44.390Z,0.50
2022-10-20T09:23:38.924Z,0.47
2022-10-20T09:26:19.663Z,0.37
2022-10-20T09:29:13.252Z,0.30
2022-10-20T09:31:46.072Z,0.60
2022-10-20T09:34:27.230Z,0.40
2022-10-20T09:37:03.435Z,0.40
2022-10-20T09:39:39.514Z,0.30
2022-10-20T09:42:16.282Z,0.60
2022-10-20T09:44:50.896Z,0.30
2022-10-20T09:47:22.352Z,0.40
2022-10-20T09:50:00.005Z,0.40
2022-10-20T09:52:34.975Z,0.40
2022-10-20T09:55:05.941Z,0.30
2022-10-20T09:57:36.068Z,0.70
2022-10-20T10:00:25.318Z,0.40
2022-10-20T10:03:09.893Z,0.30
2022-10-20T10:05:38.115Z,0.40
2022-10-20T10:08:17.033Z,0.27
2022-10-20T10:10:46.672Z,0.30
2022-10-20T10:13:38.997Z,0.50
2022-10-20T10:16:09.019Z,0.37
2022-10-20T10:18:38.674Z,0.38
2022-10-20T10:21:11.747Z,0.40
2022-10-20T10:23:54.259Z,0.30
2022-10-20T10:26:44.511Z,0.40
2022-10-20T10:29:31.051Z,0.38
2022-10-20T10:32:03.491Z,0.30
2022-10-20T10:34:40.060Z,0.20
2022-10-20T10:37:13.606Z,0.20
2022-10-20T10:39:45.161Z,0.40
2022-10-20T10:42:42.941Z,0.37
2022-10-20T10:45:19.958Z,0.20
2022-10-20T10:48:20.572Z,0.30
2022-10-20T10:53:34.508Z,0.30
2022-10-20T10:56:14.620Z,0.30
2022-10-20T10:58:47.966Z,0.13
2022-10-20T11:01:33.089Z,0.27
2022-10-20T11:04:50.288Z,0.30
2022-10-20T11:07:29.843Z,0.20
2022-10-20T11:10:12.928Z,0.20
2022-10-20T11:12:52.248Z,0.20
2022-10-20T11:15:38.772Z,0.20
2022-10-20T11:18:18.337Z,0.20
2022-10-20T11:20:56.355Z,0.20
2022-10-20T11:23:50.920Z,0.30
2022-10-20T11:26:29.094Z,0.30
2022-10-20T11:28:59.584Z,0.30
2022-10-20T11:31:37.197Z,0.20
2022-10-20T11:34:07.840Z,0.27
2022-10-20T11:36:41.583Z,0.20
2022-10-20T11:39:15.921Z,0.20
2022-10-20T11:41:49.852Z,0.20
2022-10-20T11:44:29.638Z,0.20
2022-10-20T11:47:04.648Z,0.20
2022-10-20T11:49:34.323Z,0.30
2022-10-20T11:52:33.794Z,0.20
2022-10-20T11:55:19.684Z,0.10
2022-10-20T11:58:01.263Z,0.20
2022-10-20T12:00:51.833Z,0.27
2022-10-20T12:04:04.573Z,0.23
2022-10-20T12:07:01.295Z,0.20
2022-10-20T12:09:46.091Z,0.30
2022-10-20T12:12:20.799Z,0.30
2022-10-20T12:14:58.475Z,0.30
2022-10-20T12:17:35.807Z,0.30
2022-10-20T12:20:42.030Z,0.30
2022-10-20T12:23:49.229Z,0.20
2022-10-20T12:27:04.818Z,0.27
2022-10-20T12:29:59.436Z,0.33
2022-10-20T12:36:02.766Z,0.30
2022-10-20T12:38:33.937Z,0.30
2022-10-20T12:41:04.961Z,0.30
2022-10-20T12:43:45.782Z,0.30
2022-10-20T12:46:20.777Z,0.30
2022-10-20T12:48:58.416Z,0.20
2022-10-20T12:51:36.135Z,0.30
2022-10-20T12:54:08.710Z,0.20
2022-10-20T12:56:41.678Z,0.30
2022-10-20T12:59:46.608Z,0.37
2022-10-20T13:02:45.984Z,0.30
2022-10-20T13:05:43.264Z,0.30
2022-10-20T13:08:33.199Z,0.30
2022-10-20T13:11:41.849Z,0.32
2022-10-20T13:14:31.727Z,0.30
2022-10-20T13:17:07.255Z,0.40
2022-10-20T13:19:44.630Z,0.63
2022-10-20T13:22:33.671Z,0.37
2022-10-20T13:25:05.349Z,0.30
2022-10-20T13:27:33.348Z,0.40
2022-10-20T13:30:01.463Z,0.40
2022-10-20T13:32:53.761Z,0.40
2022-10-20T13:38:07.866Z,0.37
2022-10-20T13:40:46.920Z,0.30
2022-10-20T13:43:30.454Z,0.30
2022-10-20T13:46:12.018Z,0.30
2022-10-20T13:49:00.237Z,0.40
2022-10-20T13:51:33.590Z,0.40
2022-10-20T13:54:05.035Z,0.30
2022-10-20T13:56:38.937Z,0.43
2022-10-20T13:59:19.519Z,0.40
2022-10-20T14:04:28.229Z,0.40
2022-10-20T14:07:04.815Z,0.30
2022-10-20T14:09:32.911Z,0.20
2022-10-20T14:12:03.556Z,0.40
2022-10-20T14:14:34.067Z,0.40
2022-10-20T14:19:33.519Z,0.30
2022-10-20T14:22:13.884Z,0.40
2022-10-20T14:24:44.616Z,0.40
2022-10-20T14:27:18.458Z,0.40
2022-10-20T14:29:46.849Z,0.40
2022-10-20T14:32:19.556Z,0.20
2022-10-20T14:34:57.102Z,0.43
2022-10-20T14:37:33.998Z,0.43
2022-10-20T14:40:03.598Z,0.40
2022-10-20T14:42:36.834Z,0.30
2022-10-20T14:45:05.905Z,0.60
2022-10-20T14:47:41.880Z,0.30
2022-10-20T14:50:21.304Z,0.60
2022-10-20T14:52:53.959Z,0.40
2022-10-20T14:55:32.171Z,0.50
2022-10-20T14:58:00.540Z,0.50
2022-10-20T15:00:34.897Z,0.50
2022-10-20T15:03:08.037Z,0.80
2022-10-20T15:05:41.920Z,0.90
2022-10-20T15:08:29.739Z,0.60
2022-10-20T15:10:58.294Z,0.53
2022-10-20T15:13:29.075Z,0.60
2022-10-20T15:15:58.522Z,0.87
2022-10-20T15:18:27.499Z,0.70
2022-10-20T15:20:56.091Z,0.60
2022-10-20T15:23:27.362Z,0.70
2022-10-20T15:26:01.396Z,0.73
2022-10-20T15:28:37.034Z,0.53
2022-10-20T15:31:07.584Z,0.83
2022-10-20T15:36:03.065Z,1.37
2022-10-20T15:38:31.188Z,1.50
2022-10-20T15:41:02.535Z,1.60
2022-10-20T15:43:30.650Z,2.00
2022-10-20T15:45:58.521Z,1.90
2022-10-20T15:48:27.117Z,2.10
2022-10-20T15:50:55.638Z,2.50
2022-10-20T15:53:25.675Z,5.60
2022-10-20T15:55:53.493Z,5.38
2022-10-20T15:58:24.565Z,5.37
2022-10-20T16:00:54.604Z,6.40
2022-10-20T16:03:22.445Z,4.40
2022-10-20T16:05:52.146Z,3.50
2022-10-20T16:08:22.214Z,4.30
2022-10-20T16:10:50.048Z,5.07
2022-10-20T16:13:23.281Z,4.43
2022-10-20T16:15:52.581Z,4.83
2022-10-20T16:18:20.445Z,5.40
2022-10-20T16:20:50.233Z,6.63
2022-10-20T16:23:18.251Z,9.00
2022-10-20T16:25:46.218Z,14.50
2022-10-20T16:28:16.054Z,10.60
2022-10-20T16:30:46.078Z,7.93
2022-10-20T16:33:15.312Z,11.13
2022-10-20T16:35:43.465Z,8.53
2022-10-20T16:38:11.643Z,7.90
2022-10-20T16:40:39.494Z,6.60
2022-10-20T16:43:07.444Z,5.57
2022-10-20T16:45:35.417Z,5.80
2022-10-20T16:48:03.212Z,6.10
2022-10-20T16:50:32.532Z,5.73
2022-10-20T16:53:00.646Z,6.07
2022-10-20T16:55:28.486Z,5.73
2022-10-20T16:57:58.284Z,5.70
2022-10-20T17:00:26.167Z,6.15
2022-10-20T17:02:56.301Z,5.30
2022-10-20T17:05:26.628Z,6.10
2022-10-20T17:10:27.331Z,7.10
2022-10-20T17:12:55.123Z,8.02
2022-10-20T17:15:25.078Z,7.30
2022-10-20T17:17:55.004Z,7.90
2022-10-20T17:20:22.855Z,8.63
2022-10-20T17:22:54.525Z,9.37
2022-10-20T17:25:25.674Z,8.07
2022-10-20T17:27:53.582Z,8.20
2022-10-20T17:30:21.418Z,7.73
2022-10-20T17:32:49.358Z,8.27
2022-10-20T17:35:17.952Z,9.30
2022-10-20T17:37:45.839Z,9.47
2022-10-20T17:40:13.890Z,9.57
2022-10-20T17:42:43.376Z,9.77
2022-10-20T17:45:11.784Z,9.67
2022-10-20T17:47:39.843Z,10.13
2022-10-20T17:50:11.007Z,11.13
2022-10-20T17:52:39.609Z,10.20
2022-10-20T17:55:10.390Z,10.30
2022-10-20T17:57:38.389Z,9.63
2022-10-20T18:00:14.414Z,10.20
2022-10-20T18:02:51.297Z,10.03
2022-10-20T18:05:19.508Z,8.87
2022-10-20T18:07:47.411Z,8.97
2022-10-20T18:10:19.387Z,8.33
2022-10-20T18:12:48.783Z,7.40
2022-10-20T18:15:18.440Z,6.43
2022-10-20T18:17:47.330Z,6.05
2022-10-20T18:20:17.245Z,6.13
2022-10-20T18:22:45.723Z,5.55
2022-10-20T18:25:23.693Z,5.30
2022-10-20T18:27:51.627Z,5.77
2022-10-20T18:30:21.245Z,5.13
2022-10-20T18:32:49.867Z,5.38
2022-10-20T18:35:23.610Z,5.23
2022-10-20T18:37:58.112Z,5.93
2022-10-20T18:40:29.423Z,5.33
2022-10-20T18:43:08.044Z,5.57
2022-10-20T18:45:39.196Z,5.87
2022-10-20T18:48:13.272Z,6.00
2022-10-20T18:50:56.388Z,6.00
2022-10-20T18:53:29.229Z,6.17
2022-10-20T18:56:07.387Z,5.93
2022-10-20T18:58:40.186Z,6.07
2022-10-20T19:01:14.953Z,6.27
2022-10-20T19:03:47.302Z,5.57
2022-10-20T19:06:25.432Z,6.20
2022-10-20T19:08:59.369Z,5.73
2022-10-20T19:11:30.282Z,6.13
2022-10-20T19:13:59.798Z,7.20
2022-10-20T19:16:31.706Z,7.85
2022-10-20T19:19:05.348Z,6.73
2022-10-20T19:21:37.141Z,7.43
2022-10-20T19:24:15.321Z,7.43
2022-10-20T19:26:52.666Z,7.83
2022-10-20T19:29:31.307Z,7.50
2022-10-20T19:32:03.410Z,7.97
2022-10-20T19:34:36.337Z,7.70
2022-10-20T19:37:08.036Z,7.60
2022-10-20T19:39:39.110Z,8.77
2022-10-20T19:42:08.616Z,9.10
2022-10-20T19:44:37.115Z,7.80
2022-10-20T19:47:08.133Z,9.10
2022-10-20T19:49:36.394Z,8.97
2022-10-20T19:52:04.828Z,8.17
2022-10-20T19:54:32.720Z,9.03
2022-10-20T19:57:02.885Z,9.07
2022-10-20T19:59:30.855Z,9.48
2022-10-20T20:01:58.759Z,8.90
2022-10-20T20:04:30.227Z,9.37
2022-10-20T20:07:02.400Z,8.70
2022-10-20T20:09:33.040Z,8.50
2022-10-20T20:12:00.850Z,9.38
2022-10-20T20:14:30.657Z,9.17
2022-10-20T20:17:00.630Z,8.80
2022-10-20T20:19:29.835Z,9.32
2022-10-20T20:21:57.801Z,9.13
2022-10-20T20:24:25.757Z,10.20
2022-10-20T20:26:53.549Z,9.73
2022-10-20T20:29:23.380Z,9.33
2022-10-20T20:31:51.268Z,10.25
2022-10-20T20:34:19.133Z,10.10
2022-10-20T20:36:48.408Z,11.77
2022-10-20T20:39:18.488Z,10.77
2022-10-20T20:41:47.065Z,10.68
2022-10-20T20:44:16.817Z,11.43
2022-10-20T20:46:44.766Z,12.43
2022-10-20T20:49:12.731Z,12.37
2022-10-20T20:51:42.463Z,11.83
2022-10-20T20:54:13.782Z,12.48
2022-10-20T20:56:41.561Z,12.20
2022-10-20T20:59:11.247Z,12.73
2022-10-20T21:01:45.103Z,12.63
2022-10-20T21:04:15.273Z,11.93
2022-10-20T21:07:01.113Z,11.57
2022-10-20T21:09:37.954Z,12.43
2022-10-20T21:12:05.990Z,12.30
2022-10-20T21:14:34.000Z,12.07
2022-10-20T21:17:02.139Z,11.47
2022-10-20T21:19:30.287Z,11.13
2022-10-20T21:22:01.393Z,10.77
2022-10-20T21:24:29.551Z,10.50
2022-10-20T21:26:58.745Z,10.97
2022-10-20T21:29:26.800Z,11.13
2022-10-20T21:31:55.636Z,10.03
2022-10-20T21:34:23.461Z,10.53
2022-10-20T21:36:53.432Z,10.50
2022-10-20T21:39:21.405Z,10.45
2022-10-20T21:41:49.910Z,9.77
2022-10-20T21:44:21.336Z,10.63
2022-10-20T21:46:52.824Z,10.13
2022-10-20T21:49:25.042Z,9.80
2022-10-20T21:51:59.467Z,9.87
2022-10-20T21:54:29.571Z,10.27
2022-10-20T21:56:59.521Z,8.90
2022-10-20T21:59:32.342Z,10.07
2022-10-20T22:02:02.894Z,9.70
2022-10-20T22:07:01.090Z,9.63
2022-10-20T22:09:29.277Z,9.23
2022-10-20T22:12:16.394Z,10.27
2022-10-20T22:14:47.255Z,9.30
2022-10-20T22:17:15.641Z,10.47
2022-10-20T22:19:48.780Z,9.97
2022-10-20T22:22:18.782Z,9.30
2022-10-20T22:24:46.590Z,9.75
2022-10-20T22:27:41.454Z,9.07
2022-10-20T22:30:10.128Z,8.63
2022-10-20T22:32:40.369Z,8.93
2022-10-20T22:37:38.419Z,8.45
2022-10-20T22:40:09.488Z,8.30
2022-10-20T22:42:39.792Z,8.27
2022-10-20T22:47:38.024Z,8.52
2022-10-20T22:50:08.820Z,8.30
2022-10-20T22:52:39.340Z,8.80
2022-10-20T22:55:08.598Z,8.90
2022-10-20T22:57:36.517Z,8.27
2022-10-20T23:00:08.452Z,8.27
2022-10-20T23:02:37.845Z,7.80
2022-10-20T23:05:06.343Z,8.45
2022-10-20T23:07:40.761Z,7.40
2022-10-20T23:10:09.452Z,7.60
2022-10-20T23:12:46.724Z,7.43
2022-10-20T23:15:16.833Z,7.67
2022-10-20T23:17:46.460Z,7.55
2022-10-20T23:20:16.510Z,6.65
2022-10-20T23:22:48.059Z,6.35
2022-10-20T23:25:16.454Z,6.17
2022-10-20T23:27:46.198Z,5.43
2022-10-20T23:30:16.251Z,6.10
2022-10-20T23:32:45.378Z,6.13
2022-10-20T23:35:15.145Z,5.30
2022-10-20T23:37:47.241Z,5.55
2022-10-20T23:40:15.143Z,5.60
2022-10-20T23:42:44.916Z,4.90
2022-10-20T23:45:14.981Z,6.10
2022-10-20T23:47:43.554Z,5.63
2022-10-20T23:50:14.680Z,5.13
2022-10-20T23:52:46.490Z,5.53
2022-10-20T23:55:15.588Z,6.17
2022-10-20T23:57:43.778Z,5.57
